MST,Max TemperatureF,Mean TemperatureF,Min TemperatureF,Max Dew PointF,MeanDew PointF,Min DewpointF,Max Humidity, Mean Humidity, Min Humidity, Max Sea Level PressureIn, Mean Sea Level PressureIn, Min Sea Level PressureIn, Max VisibilityMiles, Mean VisibilityMiles, Min VisibilityMiles, Max Wind SpeedMPH, Mean Wind SpeedMPH, Max Gust SpeedMPH,PrecipitationIn, CloudCover, Events, WindDirDegrees
2013-2-1,50,34,17,23,16,5,86,56,20,30.43,30.35,30.32,10,10,10,12,8,,0.00,0,,166
2013-2-2,55,40,24,28,20,10,80,52,18,30.46,30.41,30.37,10,10,10,12,7,,0.00,1,,154
2013-2-3,46,37,28,36,27,16,100,69,34,30.37,30.24,30.15,10,10,5,10,7,,0.01,6,,120
2013-2-4,53,38,23,28,24,18,93,62,28,30.23,30.19,30.15,10,10,10,9,4,,0.00,0,,116
2013-2-5,55,40,24,25,21,14,86,53,22,30.21,30.15,30.10,10,10,10,12,8,17,0.00,0,,182
2013-2-6,48,37,26,30,26,23,86,64,43,30.18,30.09,30.05,10,10,10,14,7,22,0.00,2,,206
2013-2-7,48,36,23,28,23,19,93,64,32,30.24,30.17,30.05,10,10,10,12,7,16,0.00,0,,167
2013-2-8,39,32,26,28,20,7,81,59,30,30.05,29.86,29.76,10,10,10,26,15,43,0.00,3,,189
2013-2-9,26,24,21,23,20,18,93,85,74,29.97,29.82,29.69,10,4,0,17,11,24,0.00,8,,225
2013-2-10,26,14,1,23,16,0,93,83,69,29.98,29.95,29.90,10,8,0,17,11,25,0.00,5,,215
2013-2-11,26,12,-2,18,5,-8,93,79,59,30.14,30.03,29.96,10,10,10,10,7,,0.04,0,,162
2013-2-12,32,15,-2,14,4,-8,92,68,32,30.27,30.22,30.15,10,10,10,10,5,,0.01,0,,173
2013-2-13,41,24,6,19,12,1,92,66,36,30.27,30.24,30.22,10,10,10,15,7,16,0.00,0,,107
2013-2-14,41,26,12,21,16,9,86,62,42,30.35,30.27,30.22,10,10,10,18,8,21,0.00,0,,84
2013-2-15,46,32,19,18,10,0,80,41,18,30.49,30.41,30.35,10,10,10,16,6,23,0.00,0,,51
2013-2-16,55,34,14,18,9,-2,73,41,9,30.49,30.37,30.21,10,10,10,12,7,,0.00,0,,161
2013-2-17,50,39,28,14,10,9,55,31,19,30.20,30.04,29.95,10,10,10,18,10,28,0.00,0,,204
2013-2-18,48,34,19,18,12,7,80,41,19,30.16,30.10,30.05,10,10,10,12,6,18,0.00,0,,196
2013-2-19,44,34,24,23,15,9,69,45,27,30.07,29.87,29.66,10,10,10,24,11,33,0.00,0,,160
2013-2-20,32,26,19,25,21,16,100,81,64,29.84,29.67,29.59,10,6,0,21,12,32,0.00,7,,208
2013-2-21,32,24,15,25,22,14,100,89,69,30.02,29.93,29.85,10,9,0,15,7,21,0.02,6,,239
2013-2-22,35,18,1,16,8,0,92,64,35,30.19,30.09,30.01,10,10,10,15,4,18,0.00,0,,305
2013-2-23,39,26,14,19,12,9,86,64,38,30.17,30.07,29.89,10,10,10,23,8,33,0.00,0,,170
2013-2-24,,,,,,,,,,,,,,,,,,,,,,
2013-2-25,,,,,,,,,,,,,,,,,,,,,,
2013-2-26,,,,,,,,,,,,,,,,,,,,,,
2013-2-27,,,,,,,,,,,,,,,,,,,,,,
2013-2-28,,,,,,,,,,,,,,,,,,,,,,